createdAt,value
2017-06-27T00:00:04.176Z,0
2017-06-27T00:01:05.515Z,0
2017-06-27T00:02:06.835Z,0
2017-06-27T00:03:08.150Z,0
2017-06-27T00:04:09.399Z,0
2017-06-27T00:05:10.758Z,0
2017-06-27T00:06:11.988Z,0
2017-06-27T00:07:13.293Z,0
2017-06-27T00:08:14.503Z,0
2017-06-27T00:09:15.765Z,0
2017-06-27T00:10:17.022Z,0
2017-06-27T00:11:18.342Z,0
2017-06-27T00:12:19.656Z,0
2017-06-27T00:13:20.913Z,0
2017-06-27T00:14:22.192Z,0
2017-06-27T00:15:23.438Z,0
2017-06-27T00:16:24.774Z,0
2017-06-27T00:17:26.332Z,0
2017-06-27T00:18:27.666Z,0
2017-06-27T00:19:28.954Z,0
2017-06-27T00:20:30.215Z,0
2017-06-27T00:21:31.526Z,0
2017-06-27T00:22:32.869Z,0
2017-06-27T00:23:34.135Z,0
2017-06-27T00:24:35.397Z,0
2017-06-27T00:25:36.670Z,0
2017-06-27T00:26:37.923Z,0
2017-06-27T00:27:39.312Z,0
2017-06-27T00:28:40.625Z,0
2017-06-27T00:29:41.918Z,0
2017-06-27T00:30:43.211Z,0
2017-06-27T00:31:44.508Z,0
2017-06-27T00:32:45.777Z,0
2017-06-27T00:33:47.060Z,0
2017-06-27T00:34:48.349Z,0
2017-06-27T00:35:49.642Z,0
2017-06-27T00:36:50.995Z,0
2017-06-27T00:37:52.247Z,0
2017-06-27T00:38:53.630Z,0
2017-06-27T00:39:55.031Z,0
2017-06-27T00:40:56.314Z,0
2017-06-27T00:41:57.546Z,0
2017-06-27T00:42:58.884Z,0
2017-06-27T00:44:00.188Z,0
2017-06-27T00:45:01.484Z,0
2017-06-27T00:46:02.746Z,0
2017-06-27T00:47:04.007Z,0
2017-06-27T00:48:05.293Z,0
2017-06-27T00:49:06.585Z,0
2017-06-27T00:50:07.811Z,0
2017-06-27T00:51:09.097Z,0
2017-06-27T00:52:10.365Z,0
2017-06-27T00:53:11.710Z,0
2017-06-27T00:54:12.983Z,0
2017-06-27T00:55:14.212Z,0
2017-06-27T00:56:15.591Z,0
2017-06-27T00:57:16.906Z,0
2017-06-27T00:58:18.171Z,0
2017-06-27T00:59:19.448Z,0
2017-06-27T01:00:20.721Z,0
2017-06-27T01:01:22.014Z,0
2017-06-27T01:02:23.239Z,0
2017-06-27T01:03:24.542Z,0
2017-06-27T01:04:25.775Z,0
2017-06-27T01:05:27.098Z,0
2017-06-27T01:06:28.386Z,0
2017-06-27T01:07:29.680Z,0
2017-06-27T01:08:30.960Z,0
2017-06-27T01:09:32.272Z,0
2017-06-27T01:10:33.559Z,0
2017-06-27T01:11:34.862Z,0
2017-06-27T01:12:36.130Z,0
2017-06-27T01:13:37.402Z,0
2017-06-27T01:14:38.700Z,0
2017-06-27T01:15:39.976Z,0
2017-06-27T01:16:41.421Z,0
2017-06-27T01:17:42.736Z,0
2017-06-27T01:18:44.063Z,0
2017-06-27T01:19:45.530Z,0
2017-06-27T01:20:46.832Z,0
2017-06-27T01:21:48.098Z,0
2017-06-27T01:22:49.341Z,0
2017-06-27T01:23:50.631Z,0
2017-06-27T01:24:51.857Z,0
2017-06-27T01:25:53.126Z,0
2017-06-27T01:26:54.437Z,0
2017-06-27T01:27:55.767Z,0
2017-06-27T01:28:57.076Z,0
2017-06-27T01:29:58.427Z,0
2017-06-27T01:30:59.741Z,0
2017-06-27T01:32:00.989Z,0
2017-06-27T01:33:02.310Z,0
2017-06-27T01:34:03.555Z,0
2017-06-27T01:35:04.857Z,0
2017-06-27T01:36:06.333Z,0
2017-06-27T01:37:07.654Z,0
2017-06-27T01:38:08.931Z,0
2017-06-27T01:39:10.261Z,0
2017-06-27T01:40:11.545Z,0
2017-06-27T01:41:12.798Z,0
2017-06-27T01:42:14.061Z,0
2017-06-27T01:43:15.352Z,0
2017-06-27T01:44:16.629Z,0
2017-06-27T01:45:17.928Z,0
2017-06-27T01:46:19.199Z,0
2017-06-27T01:47:20.494Z,0
2017-06-27T01:48:21.785Z,0
2017-06-27T01:49:23.040Z,0
2017-06-27T01:50:24.293Z,0
2017-06-27T01:51:25.672Z,0
2017-06-27T01:52:26.941Z,0
2017-06-27T01:53:28.279Z,0
2017-06-27T01:54:29.667Z,0
2017-06-27T01:55:31.025Z,0
2017-06-27T01:56:32.213Z,0
2017-06-27T01:57:33.484Z,0
2017-06-27T01:58:34.849Z,0
2017-06-27T01:59:36.104Z,0
2017-06-27T02:00:37.413Z,0
2017-06-27T02:01:38.730Z,0
2017-06-27T02:02:40.081Z,0
2017-06-27T02:03:41.333Z,0
2017-06-27T02:04:42.628Z,0
2017-06-27T02:05:43.921Z,0
2017-06-27T02:06:45.202Z,0
2017-06-27T02:07:46.472Z,0
2017-06-27T02:08:47.728Z,0
2017-06-27T02:09:49.007Z,0
2017-06-27T02:10:50.311Z,0
2017-06-27T02:11:51.596Z,0
2017-06-27T02:12:52.999Z,0
2017-06-27T02:13:54.221Z,0
2017-06-27T02:14:55.654Z,0
2017-06-27T02:15:56.941Z,0
2017-06-27T02:16:58.201Z,0
2017-06-27T02:17:59.659Z,0
2017-06-27T02:19:00.922Z,0
2017-06-27T02:20:02.277Z,0
2017-06-27T02:21:03.633Z,0
2017-06-27T02:22:04.923Z,0
2017-06-27T02:23:06.183Z,0
2017-06-27T02:24:07.481Z,0
2017-06-27T02:25:08.839Z,0
2017-06-27T02:26:10.233Z,0
2017-06-27T02:27:11.490Z,0
2017-06-27T02:28:12.741Z,0
2017-06-27T02:29:14.002Z,0
2017-06-27T02:30:15.393Z,0
2017-06-27T02:31:16.630Z,0
2017-06-27T02:32:17.891Z,0
2017-06-27T02:33:19.208Z,0
2017-06-27T02:34:20.485Z,0
2017-06-27T02:35:21.774Z,0
2017-06-27T02:36:23.051Z,0
2017-06-27T02:37:24.328Z,0
2017-06-27T02:38:25.667Z,0
2017-06-27T02:39:26.934Z,0
2017-06-27T02:40:28.211Z,0
2017-06-27T02:41:29.472Z,0
2017-06-27T02:42:30.763Z,0
2017-06-27T02:43:31.994Z,0
2017-06-27T02:44:33.292Z,0
2017-06-27T02:45:34.536Z,0
2017-06-27T02:46:35.801Z,0
2017-06-27T02:47:37.187Z,0
2017-06-27T02:48:38.449Z,0
2017-06-27T02:49:39.770Z,0
2017-06-27T02:50:41.037Z,0
2017-06-27T02:51:42.313Z,0
2017-06-27T02:52:43.639Z,0
2017-06-27T02:53:44.977Z,0
2017-06-27T02:54:46.233Z,5
2017-06-27T02:55:47.517Z,5
2017-06-27T02:56:48.788Z,5
2017-06-27T02:57:50.063Z,5
2017-06-27T02:58:51.337Z,5
2017-06-27T02:59:52.677Z,5
2017-06-27T03:00:53.939Z,5
2017-06-27T03:01:55.216Z,10
2017-06-27T03:02:56.498Z,10
2017-06-27T03:03:57.732Z,10
2017-06-27T03:04:59.034Z,10
2017-06-27T03:06:00.313Z,15
2017-06-27T03:07:01.559Z,15
2017-06-27T03:08:02.837Z,15
2017-06-27T03:09:04.081Z,15
2017-06-27T03:10:05.429Z,15
2017-06-27T03:11:06.734Z,20
2017-06-27T03:12:08.061Z,20
2017-06-27T03:13:09.330Z,20
2017-06-27T03:14:10.601Z,20
2017-06-27T03:15:11.878Z,25
2017-06-27T03:16:13.210Z,25
2017-06-27T03:17:14.436Z,25
2017-06-27T03:18:15.715Z,30
2017-06-27T03:19:16.988Z,30
2017-06-27T03:20:18.286Z,30
2017-06-27T03:21:19.614Z,30
2017-06-27T03:22:20.891Z,35
2017-06-27T03:23:22.138Z,35
2017-06-27T03:24:23.409Z,35
2017-06-27T03:25:24.718Z,40
2017-06-27T03:26:25.959Z,40
2017-06-27T03:27:27.258Z,40
2017-06-27T03:28:28.555Z,45
2017-06-27T03:29:29.807Z,45
2017-06-27T03:30:31.107Z,45
2017-06-27T03:31:32.339Z,50
2017-06-27T03:32:33.614Z,50
2017-06-27T03:33:34.871Z,55
2017-06-27T03:34:36.139Z,55
2017-06-27T03:35:37.443Z,60
2017-06-27T03:36:38.725Z,60
2017-06-27T03:37:40.001Z,65
2017-06-27T03:38:41.328Z,65
2017-06-27T03:39:42.661Z,70
2017-06-27T03:40:43.972Z,70
2017-06-27T03:41:45.226Z,75
2017-06-27T03:42:46.478Z,75
2017-06-27T03:43:47.745Z,80
2017-06-27T03:44:48.992Z,80
2017-06-27T03:45:50.268Z,80
2017-06-27T03:46:51.568Z,85
2017-06-27T03:47:52.895Z,90
2017-06-27T03:48:54.150Z,90
2017-06-27T03:49:55.399Z,95
2017-06-27T03:50:56.660Z,100
2017-06-27T03:51:57.920Z,105
2017-06-27T03:52:59.339Z,110
2017-06-27T03:54:00.599Z,110
2017-06-27T03:55:01.884Z,115
2017-06-27T03:56:03.139Z,115
2017-06-27T03:57:04.385Z,120
2017-06-27T03:58:05.755Z,120
2017-06-27T03:59:07.040Z,120
2017-06-27T04:00:08.301Z,120
2017-06-27T04:01:09.618Z,115
2017-06-27T04:02:10.870Z,115
2017-06-27T04:03:12.150Z,115
2017-06-27T04:04:13.550Z,115
2017-06-27T04:05:14.822Z,120
2017-06-27T04:06:16.109Z,120
2017-06-27T04:07:17.390Z,120
2017-06-27T04:08:18.669Z,120
2017-06-27T04:09:19.920Z,120
2017-06-27T04:10:21.221Z,125
2017-06-27T04:11:22.540Z,125
2017-06-27T04:12:23.947Z,125
2017-06-27T04:13:25.226Z,130
2017-06-27T04:14:26.560Z,135
2017-06-27T04:15:27.799Z,140
2017-06-27T04:16:29.110Z,150
2017-06-27T04:17:30.479Z,150
2017-06-27T04:18:31.762Z,150
2017-06-27T04:19:33.027Z,150
2017-06-27T04:20:34.286Z,150
2017-06-27T04:21:35.575Z,155
2017-06-27T04:22:36.868Z,155
2017-06-27T04:23:38.167Z,160
2017-06-27T04:24:39.530Z,160
2017-06-27T04:25:40.804Z,160
2017-06-27T04:26:42.058Z,165
2017-06-27T04:27:43.332Z,165
2017-06-27T04:28:44.612Z,170
2017-06-27T04:29:45.933Z,175
2017-06-27T04:30:47.232Z,180
2017-06-27T04:31:48.510Z,185
2017-06-27T04:32:49.786Z,190
2017-06-27T04:33:51.050Z,200
2017-06-27T04:34:52.352Z,205
2017-06-27T04:35:53.641Z,210
2017-06-27T04:36:54.898Z,230
2017-06-27T04:37:56.137Z,215
2017-06-27T04:38:57.432Z,215
2017-06-27T04:39:58.675Z,215
2017-06-27T04:40:59.924Z,215
2017-06-27T04:42:01.201Z,215
2017-06-27T04:43:02.471Z,220
2017-06-27T04:44:03.779Z,230
2017-06-27T04:45:05.104Z,235
2017-06-27T04:46:06.388Z,235
2017-06-27T04:47:07.696Z,240
2017-06-27T04:48:08.929Z,240
2017-06-27T04:49:10.230Z,240
2017-06-27T04:50:11.541Z,245
2017-06-27T04:51:12.857Z,250
2017-06-27T04:52:14.125Z,255
2017-06-27T04:53:15.456Z,260
2017-06-27T04:54:16.720Z,260
2017-06-27T04:55:17.951Z,260
2017-06-27T04:56:19.252Z,260
2017-06-27T04:57:20.533Z,260
2017-06-27T04:58:21.886Z,260
2017-06-27T04:59:23.145Z,265
2017-06-27T05:00:24.418Z,265
2017-06-27T05:01:25.716Z,285
2017-06-27T05:02:26.955Z,305
2017-06-27T05:03:28.193Z,300
2017-06-27T05:04:29.525Z,300
2017-06-27T05:05:30.799Z,285
2017-06-27T05:06:32.117Z,285
2017-06-27T05:07:33.427Z,295
2017-06-27T05:08:34.700Z,305
2017-06-27T05:09:36.019Z,315
2017-06-27T05:10:37.471Z,325
2017-06-27T05:11:38.749Z,340
2017-06-27T05:12:40.002Z,355
2017-06-27T05:13:41.293Z,365
2017-06-27T05:14:42.566Z,385
2017-06-27T05:15:43.831Z,420
2017-06-27T05:16:45.123Z,425
2017-06-27T05:17:46.375Z,480
2017-06-27T05:18:47.744Z,445
2017-06-27T05:19:49.117Z,500
2017-06-27T05:20:50.298Z,510
2017-06-27T05:21:51.586Z,600
2017-06-27T05:22:52.856Z,735
2017-06-27T05:23:54.125Z,765
2017-06-27T05:24:55.541Z,440
2017-06-27T05:25:56.755Z,650
2017-06-27T05:26:58.064Z,460
2017-06-27T05:27:59.287Z,640
2017-06-27T05:29:00.556Z,720
2017-06-27T05:30:01.952Z,755
2017-06-27T05:31:03.311Z,665
2017-06-27T05:32:04.527Z,660
2017-06-27T05:33:05.808Z,1000
2017-06-27T05:34:07.116Z,745
2017-06-27T05:35:08.432Z,580
2017-06-27T05:36:09.701Z,550
2017-06-27T05:37:10.992Z,680
2017-06-27T05:38:12.272Z,740
2017-06-27T05:39:13.537Z,795
2017-06-27T05:40:14.803Z,635
2017-06-27T05:41:16.085Z,580
2017-06-27T05:42:17.458Z,795
2017-06-27T05:43:18.711Z,1015
2017-06-27T05:44:20.035Z,1085
2017-06-27T05:45:21.279Z,835
2017-06-27T05:46:22.549Z,1125
2017-06-27T05:47:23.855Z,990
2017-06-27T05:48:25.130Z,760
2017-06-27T05:49:26.423Z,850
2017-06-27T05:50:27.695Z,960
2017-06-27T05:51:28.981Z,930
2017-06-27T05:52:30.249Z,1005
2017-06-27T05:53:31.639Z,890
2017-06-27T05:54:32.896Z,850
2017-06-27T05:55:34.148Z,700
2017-06-27T05:56:35.461Z,905
2017-06-27T05:57:36.742Z,910
2017-06-27T05:58:38.054Z,755
2017-06-27T05:59:39.467Z,650
2017-06-27T06:00:40.617Z,600
2017-06-27T06:01:41.921Z,655
2017-06-27T06:02:43.240Z,655
2017-06-27T06:03:44.531Z,770
2017-06-27T06:04:45.933Z,755
2017-06-27T06:05:47.266Z,565
2017-06-27T06:06:48.518Z,510
2017-06-27T06:07:49.804Z,500
2017-06-27T06:08:51.106Z,510
2017-06-27T06:09:52.437Z,520
2017-06-27T06:10:53.688Z,545
2017-06-27T06:11:55.087Z,560
2017-06-27T06:12:56.399Z,570
2017-06-27T06:13:57.705Z,585
2017-06-27T06:14:58.978Z,580
2017-06-27T06:16:00.237Z,595
2017-06-27T06:17:01.582Z,595
2017-06-27T06:18:02.868Z,635
2017-06-27T06:19:04.146Z,650
2017-06-27T06:20:05.438Z,605
2017-06-27T06:21:06.760Z,640
2017-06-27T06:22:08.025Z,705
2017-06-27T06:23:09.275Z,715
2017-06-27T06:24:10.569Z,700
2017-06-27T06:25:11.920Z,655
2017-06-27T06:26:13.185Z,765
2017-06-27T06:27:14.454Z,760
2017-06-27T06:28:15.750Z,990
2017-06-27T06:29:17.049Z,1110
2017-06-27T06:30:18.330Z,940
2017-06-27T06:31:19.625Z,1195
2017-06-27T06:32:20.915Z,770
2017-06-27T06:33:22.193Z,760
2017-06-27T06:34:23.449Z,740
2017-06-27T06:35:24.855Z,915
2017-06-27T06:36:26.132Z,790
2017-06-27T06:37:27.422Z,780
2017-06-27T06:38:28.756Z,755
2017-06-27T06:39:30.039Z,880
2017-06-27T06:40:31.332Z,1120
2017-06-27T06:41:32.619Z,1405
2017-06-27T06:42:33.972Z,1470
2017-06-27T06:43:35.303Z,1630
2017-06-27T06:44:36.584Z,1545
2017-06-27T06:45:37.837Z,1775
2017-06-27T06:46:39.156Z,1185
2017-06-27T06:47:40.552Z,1170
2017-06-27T06:48:41.817Z,1465
2017-06-27T06:49:43.096Z,1185
2017-06-27T06:50:44.379Z,1585
2017-06-27T06:51:45.683Z,1210
2017-06-27T06:52:47.030Z,1055
2017-06-27T06:53:48.317Z,1335
2017-06-27T06:54:49.591Z,765
2017-06-27T06:55:50.897Z,775
2017-06-27T06:56:52.096Z,840
2017-06-27T06:57:53.348Z,1040
2017-06-27T06:58:54.636Z,830
2017-06-27T06:59:55.905Z,735
2017-06-27T07:00:57.178Z,725
2017-06-27T07:01:58.403Z,670
2017-06-27T07:02:59.698Z,880
2017-06-27T07:04:01.039Z,910
2017-06-27T07:05:02.332Z,715
2017-06-27T07:06:03.679Z,725
2017-06-27T07:07:04.948Z,745
2017-06-27T07:08:06.235Z,775
2017-06-27T07:09:07.623Z,845
2017-06-27T07:10:08.957Z,775
2017-06-27T07:11:10.240Z,755
2017-06-27T07:12:11.549Z,730
2017-06-27T07:13:12.796Z,755
2017-06-27T07:14:14.268Z,660
2017-06-27T07:15:15.577Z,630
2017-06-27T07:16:16.880Z,615
2017-06-27T07:17:18.162Z,660
2017-06-27T07:18:19.550Z,680
2017-06-27T07:19:20.755Z,600
2017-06-27T07:20:22.070Z,605
2017-06-27T07:21:23.382Z,625
2017-06-27T07:22:24.693Z,710
2017-06-27T07:23:25.988Z,750
2017-06-27T07:24:27.330Z,805
2017-06-27T07:25:28.614Z,750
2017-06-27T07:26:29.874Z,745
2017-06-27T07:27:31.148Z,925
2017-06-27T07:28:32.407Z,750
2017-06-27T07:29:33.675Z,675
2017-06-27T07:30:34.986Z,670
2017-06-27T07:31:36.223Z,660
2017-06-27T07:32:37.536Z,690
2017-06-27T07:33:38.843Z,760
2017-06-27T07:34:40.094Z,755
2017-06-27T07:35:41.368Z,795
2017-06-27T07:36:42.658Z,865
2017-06-27T07:37:44.006Z,930
2017-06-27T07:38:45.338Z,1305
2017-06-27T07:39:46.618Z,1390
2017-06-27T07:40:47.876Z,1420
2017-06-27T07:41:49.184Z,1470
2017-06-27T07:42:50.477Z,1070
2017-06-27T07:43:51.886Z,1225
2017-06-27T07:44:53.154Z,1260
2017-06-27T07:45:54.455Z,1230
2017-06-27T07:46:55.762Z,1095
2017-06-27T07:47:57.106Z,1130
2017-06-27T07:48:58.429Z,885
2017-06-27T07:49:59.811Z,770
2017-06-27T07:51:01.078Z,810
2017-06-27T07:52:02.355Z,695
2017-06-27T07:53:03.729Z,845
2017-06-27T07:54:05.071Z,640
2017-06-27T07:55:06.556Z,620
2017-06-27T07:56:07.831Z,620
2017-06-27T07:57:09.113Z,605
2017-06-27T07:58:10.418Z,595
2017-06-27T07:59:11.828Z,625
2017-06-27T08:00:13.139Z,560
2017-06-27T08:01:14.415Z,550
2017-06-27T08:02:15.747Z,560
2017-06-27T08:03:17.135Z,580
2017-06-27T08:04:18.395Z,605
2017-06-27T08:05:19.725Z,635
2017-06-27T08:06:21.003Z,660
2017-06-27T08:07:22.225Z,690
2017-06-27T08:08:23.512Z,710
2017-06-27T08:09:24.891Z,740
2017-06-27T08:10:26.170Z,805
2017-06-27T08:11:27.441Z,770
2017-06-27T08:12:28.714Z,790
2017-06-27T08:13:30.010Z,765
2017-06-27T08:14:31.316Z,850
2017-06-27T08:15:32.577Z,890
2017-06-27T08:16:33.842Z,1010
2017-06-27T08:17:35.115Z,1070
2017-06-27T08:18:36.456Z,965
2017-06-27T08:19:37.713Z,905
2017-06-27T08:20:39.022Z,765
2017-06-27T08:21:40.355Z,760
2017-06-27T08:22:41.734Z,750
2017-06-27T08:23:43.008Z,755
2017-06-27T08:24:44.249Z,830
2017-06-27T08:25:45.592Z,790
2017-06-27T08:26:46.960Z,805
2017-06-27T08:27:48.249Z,820
2017-06-27T08:28:49.508Z,860
2017-06-27T08:29:50.798Z,865
2017-06-27T08:30:52.060Z,940
2017-06-27T08:31:53.363Z,970
2017-06-27T08:32:54.771Z,910
2017-06-27T08:33:55.913Z,870
2017-06-27T08:34:57.183Z,855
2017-06-27T08:35:58.481Z,835
2017-06-27T08:36:59.873Z,815
2017-06-27T08:38:01.177Z,830
2017-06-27T08:39:02.508Z,865
2017-06-27T08:40:03.851Z,910
2017-06-27T08:41:05.130Z,870
2017-06-27T08:42:06.418Z,895
2017-06-27T08:43:07.800Z,915
2017-06-27T08:44:09.121Z,925
2017-06-27T08:45:10.450Z,965
2017-06-27T08:46:11.772Z,1000
2017-06-27T08:47:13.067Z,995
2017-06-27T08:48:14.326Z,1055
2017-06-27T08:49:15.685Z,1485
2017-06-27T08:50:16.964Z,1130
2017-06-27T08:51:18.247Z,1390
2017-06-27T08:52:19.524Z,1150
2017-06-27T08:53:20.819Z,1130
2017-06-27T08:54:22.196Z,1260
2017-06-27T08:55:23.502Z,1300
2017-06-27T08:56:24.786Z,1730
2017-06-27T08:57:26.011Z,1420
2017-06-27T08:58:27.286Z,1055
2017-06-27T08:59:28.557Z,1085
2017-06-27T09:00:29.833Z,1060
2017-06-27T09:01:31.155Z,1020
2017-06-27T09:02:32.398Z,1020
2017-06-27T09:03:33.687Z,1000
2017-06-27T09:04:34.975Z,960
2017-06-27T09:05:36.223Z,860
2017-06-27T09:06:37.544Z,825
2017-06-27T09:07:38.815Z,805
2017-06-27T09:08:40.088Z,780
2017-06-27T09:09:41.395Z,745
2017-06-27T09:10:42.739Z,710
2017-06-27T09:11:44.055Z,685
2017-06-27T09:12:45.304Z,670
2017-06-27T09:13:46.651Z,670
2017-06-27T09:14:47.939Z,675
2017-06-27T09:15:49.201Z,655
2017-06-27T09:16:50.484Z,655
2017-06-27T09:17:51.832Z,645
2017-06-27T09:18:53.210Z,630
2017-06-27T09:19:54.491Z,635
2017-06-27T09:20:55.862Z,650
2017-06-27T09:21:57.177Z,665
2017-06-27T09:22:58.450Z,675
2017-06-27T09:23:59.767Z,680
2017-06-27T09:25:01.034Z,675
2017-06-27T09:26:02.307Z,660
2017-06-27T09:27:03.569Z,640
2017-06-27T09:28:04.858Z,630
2017-06-27T09:29:06.182Z,620
2017-06-27T09:30:07.579Z,625
2017-06-27T09:31:08.892Z,620
2017-06-27T09:32:10.129Z,620
2017-06-27T09:33:11.398Z,635
2017-06-27T09:34:12.695Z,660
2017-06-27T09:35:13.966Z,650
2017-06-27T09:36:15.284Z,635
2017-06-27T09:37:16.617Z,625
2017-06-27T09:38:17.887Z,625
2017-06-27T09:39:19.247Z,635
2017-06-27T09:40:20.430Z,625
2017-06-27T09:41:21.749Z,630
2017-06-27T09:42:23.006Z,630
2017-06-27T09:43:24.280Z,630
2017-06-27T09:44:25.590Z,640
2017-06-27T09:45:26.823Z,660
2017-06-27T09:46:28.156Z,690
2017-06-27T09:47:29.415Z,715
2017-06-27T09:48:30.655Z,715
2017-06-27T09:49:31.973Z,710
2017-06-27T09:50:33.297Z,700
2017-06-27T09:51:34.563Z,700
2017-06-27T09:52:35.886Z,695
2017-06-27T09:53:37.124Z,680
2017-06-27T09:54:38.430Z,670
2017-06-27T09:55:39.710Z,670
2017-06-27T09:56:40.966Z,680
2017-06-27T09:57:42.219Z,735
2017-06-27T09:58:43.500Z,700
2017-06-27T09:59:44.824Z,725
2017-06-27T10:00:46.113Z,735
2017-06-27T10:01:47.524Z,740
2017-06-27T10:02:48.681Z,725
2017-06-27T10:03:49.993Z,710
2017-06-27T10:04:51.258Z,700
2017-06-27T10:05:52.554Z,685
2017-06-27T10:06:53.911Z,675
2017-06-27T10:07:55.170Z,665
2017-06-27T10:08:56.443Z,660
2017-06-27T10:09:57.708Z,660
2017-06-27T10:10:58.977Z,670
2017-06-27T10:12:00.282Z,665
2017-06-27T10:13:01.548Z,670
2017-06-27T10:14:02.829Z,680
2017-06-27T10:15:04.100Z,700
2017-06-27T10:16:05.380Z,725
2017-06-27T10:17:06.639Z,790
2017-06-27T10:18:08.010Z,805
2017-06-27T10:19:09.288Z,815
2017-06-27T10:20:10.588Z,820
2017-06-27T10:21:11.819Z,825
2017-06-27T10:22:13.123Z,845
2017-06-27T10:23:14.413Z,850
2017-06-27T10:24:15.674Z,870
2017-06-27T10:25:16.933Z,890
2017-06-27T10:26:18.194Z,950
2017-06-27T10:27:19.458Z,985
2017-06-27T10:28:20.730Z,995
2017-06-27T10:29:22.029Z,1025
2017-06-27T10:30:23.317Z,1305
2017-06-27T10:31:24.575Z,2005
2017-06-27T10:32:26.057Z,1095
2017-06-27T10:33:27.356Z,940
2017-06-27T10:34:28.661Z,895
2017-06-27T10:35:29.965Z,855
2017-06-27T10:36:31.231Z,900
2017-06-27T10:37:32.490Z,980
2017-06-27T10:38:33.847Z,890
2017-06-27T10:39:35.137Z,885
2017-06-27T10:40:36.449Z,860
2017-06-27T10:41:37.697Z,825
2017-06-27T10:42:38.994Z,805
2017-06-27T10:43:40.248Z,790
2017-06-27T10:44:41.536Z,770
2017-06-27T10:45:42.813Z,740
2017-06-27T10:46:44.173Z,715
2017-06-27T10:47:45.458Z,710
2017-06-27T10:48:46.699Z,710
2017-06-27T10:49:48.028Z,715
2017-06-27T10:50:49.321Z,710
2017-06-27T10:51:50.591Z,700
2017-06-27T10:52:51.903Z,690
2017-06-27T10:53:53.136Z,675
2017-06-27T10:54:54.453Z,670
2017-06-27T10:55:56.030Z,675
2017-06-27T10:56:57.237Z,675
2017-06-27T10:57:58.524Z,675
2017-06-27T10:58:59.813Z,670
2017-06-27T11:00:01.073Z,660
2017-06-27T11:01:02.343Z,640
2017-06-27T11:02:03.668Z,635
2017-06-27T11:03:04.933Z,635
2017-06-27T11:04:06.213Z,645
2017-06-27T11:05:07.473Z,645
2017-06-27T11:06:08.738Z,650
2017-06-27T11:07:10.067Z,645
2017-06-27T11:08:11.344Z,640
2017-06-27T11:09:12.588Z,640
2017-06-27T11:10:13.890Z,640
2017-06-27T11:11:15.137Z,640
2017-06-27T11:12:16.401Z,635
2017-06-27T11:13:17.704Z,640
2017-06-27T11:14:19.068Z,635
2017-06-27T11:15:20.336Z,630
2017-06-27T11:16:21.656Z,635
2017-06-27T11:17:22.933Z,630
2017-06-27T11:18:24.264Z,635
2017-06-27T11:19:25.640Z,625
2017-06-27T11:20:26.931Z,635
2017-06-27T11:21:28.212Z,640
2017-06-27T11:22:29.633Z,645
2017-06-27T11:23:30.821Z,660
2017-06-27T11:24:32.097Z,670
2017-06-27T11:25:33.624Z,690
2017-06-27T11:26:34.943Z,700
2017-06-27T11:27:36.169Z,715
2017-06-27T11:28:37.491Z,730
2017-06-27T11:29:38.812Z,735
2017-06-27T11:30:40.103Z,740
2017-06-27T11:31:41.406Z,750
2017-06-27T11:32:42.681Z,760
2017-06-27T11:33:44.134Z,750
2017-06-27T11:34:45.492Z,750
2017-06-27T11:35:46.776Z,760
2017-06-27T11:36:48.261Z,765
2017-06-27T11:37:49.522Z,770
2017-06-27T11:38:50.788Z,770
2017-06-27T11:39:52.173Z,760
2017-06-27T11:40:53.467Z,745
2017-06-27T11:41:54.732Z,735
2017-06-27T11:42:56.014Z,730
2017-06-27T11:43:57.315Z,720
2017-06-27T11:44:58.665Z,715
2017-06-27T11:45:59.883Z,705
2017-06-27T11:47:01.184Z,700
2017-06-27T11:48:02.439Z,695
2017-06-27T11:49:03.703Z,700
2017-06-27T11:50:04.992Z,700
2017-06-27T11:51:06.281Z,700
2017-06-27T11:52:07.582Z,700
2017-06-27T11:53:08.921Z,705
2017-06-27T11:54:10.179Z,705
2017-06-27T11:55:11.523Z,705
2017-06-27T11:56:12.795Z,700
2017-06-27T11:57:14.136Z,700
2017-06-27T11:58:15.496Z,700
2017-06-27T11:59:16.787Z,710
2017-06-27T12:00:18.074Z,710
2017-06-27T12:01:19.352Z,710
2017-06-27T12:02:20.674Z,715
2017-06-27T12:03:21.923Z,715
2017-06-27T12:04:23.186Z,715
2017-06-27T12:05:24.467Z,720
2017-06-27T12:06:25.853Z,720
2017-06-27T12:07:27.393Z,720
2017-06-27T12:08:28.730Z,725
2017-06-27T12:09:29.931Z,730
2017-06-27T12:10:31.210Z,730
2017-06-27T12:11:32.479Z,725
2017-06-27T12:12:33.776Z,725
2017-06-27T12:13:35.039Z,720
2017-06-27T12:14:36.294Z,720
2017-06-27T12:15:37.567Z,715
2017-06-27T12:16:38.834Z,715
2017-06-27T12:17:40.327Z,705
2017-06-27T12:18:41.709Z,700
2017-06-27T12:19:42.973Z,690
2017-06-27T12:20:44.320Z,685
2017-06-27T12:21:45.580Z,675
2017-06-27T12:22:46.838Z,660
2017-06-27T12:23:48.105Z,650
2017-06-27T12:24:49.398Z,640
2017-06-27T12:25:50.665Z,635
2017-06-27T12:26:51.914Z,630
2017-06-27T12:27:53.179Z,625
2017-06-27T12:28:54.452Z,620
2017-06-27T12:29:55.798Z,605
2017-06-27T12:30:57.070Z,590
2017-06-27T12:31:58.481Z,575
2017-06-27T12:32:59.798Z,565
2017-06-27T12:34:01.043Z,555
2017-06-27T12:35:02.355Z,555
2017-06-27T12:36:03.667Z,550
2017-06-27T12:37:04.944Z,550
2017-06-27T12:38:06.307Z,550
2017-06-27T12:39:07.599Z,545
2017-06-27T12:40:08.886Z,535
2017-06-27T12:41:10.131Z,520
2017-06-27T12:42:11.430Z,505
2017-06-27T12:43:12.726Z,490
2017-06-27T12:44:14.021Z,480
2017-06-27T12:45:15.301Z,470
2017-06-27T12:46:16.555Z,465
2017-06-27T12:47:17.938Z,465
2017-06-27T12:48:19.208Z,465
2017-06-27T12:49:20.504Z,465
2017-06-27T12:50:21.744Z,470
2017-06-27T12:51:23.021Z,470
2017-06-27T12:52:24.302Z,480
2017-06-27T12:53:25.649Z,485
2017-06-27T12:54:26.898Z,495
2017-06-27T12:55:28.225Z,505
2017-06-27T12:56:29.528Z,510
2017-06-27T12:57:30.762Z,520
2017-06-27T12:58:32.106Z,530
2017-06-27T12:59:33.475Z,535
2017-06-27T13:00:34.779Z,535
2017-06-27T13:01:36.053Z,535
2017-06-27T13:02:37.305Z,535
2017-06-27T13:03:38.551Z,530
2017-06-27T13:04:39.842Z,520
2017-06-27T13:05:41.119Z,515
2017-06-27T13:06:42.406Z,505
2017-06-27T13:07:43.700Z,495
2017-06-27T13:08:44.980Z,485
2017-06-27T13:09:46.235Z,475
2017-06-27T13:10:47.495Z,460
2017-06-27T13:11:48.783Z,450
2017-06-27T13:12:50.066Z,445
2017-06-27T13:13:51.341Z,435
2017-06-27T13:14:52.624Z,430
2017-06-27T13:15:53.919Z,430
2017-06-27T13:16:55.228Z,425
2017-06-27T13:17:56.681Z,425
2017-06-27T13:18:57.987Z,425
2017-06-27T13:19:59.244Z,425
2017-06-27T13:21:00.521Z,430
2017-06-27T13:22:01.810Z,435
2017-06-27T13:23:03.097Z,435
2017-06-27T13:24:04.554Z,435
2017-06-27T13:25:05.942Z,435
2017-06-27T13:26:07.327Z,440
2017-06-27T13:27:08.529Z,445
2017-06-27T13:28:09.840Z,445
2017-06-27T13:29:11.103Z,445
2017-06-27T13:30:12.447Z,445
2017-06-27T13:31:13.746Z,440
2017-06-27T13:32:15.074Z,445
2017-06-27T13:33:16.391Z,435
2017-06-27T13:34:17.664Z,435
2017-06-27T13:35:18.917Z,430
2017-06-27T13:36:20.160Z,425
2017-06-27T13:37:21.441Z,430
2017-06-27T13:38:22.729Z,430
2017-06-27T13:39:24.050Z,440
2017-06-27T13:40:25.294Z,455
2017-06-27T13:41:26.569Z,475
2017-06-27T13:42:27.860Z,485
2017-06-27T13:43:29.309Z,500
2017-06-27T13:44:30.568Z,510
2017-06-27T13:45:31.998Z,520
2017-06-27T13:46:33.266Z,525
2017-06-27T13:47:34.537Z,530
2017-06-27T13:48:35.848Z,530
2017-06-27T13:49:37.133Z,530
2017-06-27T13:50:38.431Z,520
2017-06-27T13:51:40.116Z,510
2017-06-27T13:52:41.535Z,500
2017-06-27T13:53:42.848Z,490
2017-06-27T13:54:44.104Z,485
2017-06-27T13:55:45.411Z,475
2017-06-27T13:56:46.706Z,470
2017-06-27T13:57:47.979Z,465
2017-06-27T13:58:49.456Z,460
2017-06-27T13:59:50.749Z,455
2017-06-27T14:00:52.006Z,450
2017-06-27T14:01:53.279Z,450
2017-06-27T14:02:54.578Z,450
2017-06-27T14:03:55.907Z,445
2017-06-27T14:04:57.174Z,435
2017-06-27T14:05:58.454Z,425
2017-06-27T14:06:59.744Z,415
2017-06-27T14:08:01.019Z,400
2017-06-27T14:09:02.292Z,385
2017-06-27T14:10:03.769Z,375
2017-06-27T14:11:05.096Z,370
2017-06-27T14:12:06.460Z,365
2017-06-27T14:13:07.791Z,365
2017-06-27T14:14:09.069Z,365
2017-06-27T14:15:10.514Z,365
2017-06-27T14:16:11.786Z,370